Time;durP1;ratioP1;P1;durP2;ratioP2;P2;SDS_P1;SDS_P2;PMS_P1;PMS_P2;Temp;Humidity;BMP_temperature;BMP_pressure;BME280_temperature;BME280_humidity;BME280_pressure;Samples;Min_cycle;Max_cycle;Signal;HPM_P1;HPM_P2
2020/12/05 06:01:27;;;;;;;35.07;15.10;;;1.00;97.30;;;;;;5610809;23;20984;-74
2020/12/05 06:04:02;;;;;;;37.77;17.23;;;1.10;97.30;;;;;;4938304;29;20423;-75
2020/12/05 06:06:31;;;;;;;34.37;15.47;;;1.10;97.30;;;;;;4947063;28;20419;-74
2020/12/05 06:08:58;;;;;;;35.83;16.00;;;1.10;97.30;;;;;;4958473;28;20503;-74
2020/12/05 06:11:26;;;;;;;37.60;17.43;;;1.10;97.30;;;;;;4949447;28;20467;-74
2020/12/05 06:13:52;;;;;;;47.60;18.93;;;1.10;97.30;;;;;;4927146;29;20456;-74
2020/12/05 06:16:18;;;;;;;36.83;16.93;;;1.10;97.30;;;;;;4920212;29;20757;-74
2020/12/05 06:18:46;;;;;;;43.27;18.03;;;1.10;97.30;;;;;;4920937;29;20435;-74
2020/12/05 06:21:12;;;;;;;39.93;18.13;;;1.10;97.30;;;;;;4919222;29;20507;-74
2020/12/05 06:23:51;;;;;;;41.23;18.37;;;1.10;97.30;;;;;;4920560;29;20428;-74
2020/12/05 06:26:25;;;;;;;41.60;17.43;;;1.00;97.30;;;;;;4920514;29;20427;-73
2020/12/05 06:28:52;;;;;;;42.20;17.73;;;1.00;97.30;;;;;;4921499;29;20424;-73
2020/12/05 06:31:17;;;;;;;38.00;17.97;;;1.00;97.30;;;;;;4921935;29;20467;-74
2020/12/05 06:33:45;;;;;;;37.83;17.70;;;1.00;97.30;;;;;;4921141;29;20425;-74
2020/12/05 06:36:30;;;;;;;44.50;18.10;;;1.10;97.30;;;;;;4920756;29;20437;-73
2020/12/05 06:39:06;;;;;;;41.33;19.27;;;1.10;97.30;;;;;;4921450;29;20460;-74
2020/12/05 06:41:41;;;;;;;35.70;16.17;;;1.10;97.30;;;;;;4921168;29;20464;-74
2020/12/05 06:44:13;;;;;;;35.00;16.30;;;1.10;97.30;;;;;;4939924;29;20513;-74
2020/12/05 06:47:00;;;;;;;38.07;17.37;;;1.00;97.30;;;;;;4940019;29;20420;-74
2020/12/05 06:49:38;;;;;;;36.67;15.83;;;0.90;97.30;;;;;;4939395;29;20439;-74
2020/12/05 06:52:26;;;;;;;40.40;17.23;;;0.90;97.30;;;;;;4923315;29;20432;-74
2020/12/05 06:54:54;;;;;;;37.73;16.93;;;0.80;97.30;;;;;;4919399;29;20443;-74
2020/12/05 06:57:22;;;;;;;37.47;16.30;;;0.70;97.30;;;;;;4920020;29;20421;-74
2020/12/05 06:59:49;;;;;;;42.77;18.33;;;0.60;97.30;;;;;;4917663;29;20511;-74
2020/12/05 07:02:27;;;;;;;45.70;20.10;;;0.70;97.30;;;;;;4917815;29;20467;-73
2020/12/05 07:05:19;;;;;;;34.83;16.73;;;0.70;97.30;;;;;;4917788;29;20428;-74
2020/12/05 07:07:48;;;;;;;38.87;17.60;;;0.60;97.30;;;;;;4918513;29;20797;-74
2020/12/05 07:10:16;;;;;;;37.03;16.50;;;0.50;97.30;;;;;;4919284;29;20440;-76
2020/12/05 07:12:43;;;;;;;42.30;19.80;;;0.50;97.30;;;;;;4918400;29;20436;-74
2020/12/05 07:15:22;;;;;;;42.33;19.17;;;0.50;97.30;;;;;;4917872;29;20914;-73
2020/12/05 07:17:49;;;;;;;42.27;20.10;;;0.50;97.30;;;;;;4918063;29;20949;-73
2020/12/05 07:20:15;;;;;;;42.90;20.20;;;0.60;97.30;;;;;;4917875;29;20515;-74
2020/12/05 07:22:43;;;;;;;39.13;18.30;;;0.70;97.30;;;;;;4918922;29;20952;-73
2020/12/05 07:25:10;;;;;;;45.37;19.60;;;0.70;97.30;;;;;;4918042;29;20420;-73
2020/12/05 07:27:36;;;;;;;34.80;17.77;;;0.80;97.30;;;;;;4917941;29;20416;-73
2020/12/05 07:30:04;;;;;;;45.17;18.93;;;0.80;97.30;;;;;;4917945;29;20444;-73
2020/12/05 07:32:35;;;;;;;40.77;18.37;;;0.80;97.30;;;;;;4918035;29;20568;-73
2020/12/05 07:35:04;;;;;;;37.13;17.53;;;0.70;97.30;;;;;;4917650;29;20447;-73
2020/12/05 07:37:30;;;;;;;43.37;20.43;;;0.80;97.30;;;;;;4917719;29;20809;-73
2020/12/05 07:39:56;;;;;;;44.37;20.83;;;0.80;97.30;;;;;;4917768;29;20512;-73
2020/12/05 07:42:22;;;;;;;45.37;20.30;;;0.90;97.30;;;;;;4917572;29;20674;-72
2020/12/05 07:44:50;;;;;;;46.13;19.87;;;1.00;97.30;;;;;;4917558;29;20816;-74
2020/12/05 07:47:21;;;;;;;45.70;20.40;;;1.00;97.30;;;;;;4917319;29;20429;-73
2020/12/05 07:49:53;;;;;;;41.20;18.10;;;1.10;97.30;;;;;;4917407;29;20515;-73
2020/12/05 07:52:21;;;;;;;40.00;18.73;;;1.10;97.30;;;;;;4917878;29;20456;-73
2020/12/05 07:54:51;;;;;;;45.70;19.50;;;1.10;97.30;;;;;;4917219;29;20420;-73
2020/12/05 07:57:17;;;;;;;46.60;18.43;;;1.10;97.30;;;;;;4917485;29;20460;-73
2020/12/05 07:59:45;;;;;;;41.90;18.70;;;1.20;97.30;;;;;;4917294;29;20470;-73
2020/12/05 08:02:26;;;;;;;43.83;19.47;;;1.20;97.30;;;;;;4916964;29;20205;-74
2020/12/05 08:05:19;;;;;;;51.67;22.77;;;1.20;97.30;;;;;;4917196;29;20420;-74
2020/12/05 08:07:56;;;;;;;43.17;19.30;;;1.30;97.30;;;;;;4914836;29;20421;-74
2020/12/05 08:10:26;;;;;;;40.80;18.50;;;1.40;97.30;;;;;;4917367;29;20412;-73
2020/12/05 08:13:26;;;;;;;43.53;18.80;;;1.50;97.30;;;;;;4917256;29;20449;-74
2020/12/05 08:15:57;;;;;;;39.67;18.27;;;1.70;97.30;;;;;;4917217;29;20515;-75
2020/12/05 08:18:25;;;;;;;38.97;18.93;;;1.90;97.30;;;;;;4916322;29;20957;-74
2020/12/05 08:20:52;;;;;;;35.17;17.83;;;2.00;97.30;;;;;;4917227;29;21007;-75
2020/12/05 08:23:24;;;;;;;40.20;19.27;;;2.20;97.30;;;;;;4916807;29;20506;-75
2020/12/05 08:25:52;;;;;;;40.90;18.50;;;2.30;97.30;;;;;;4917010;29;20792;-73
2020/12/05 08:28:20;;;;;;;41.30;18.30;;;2.50;97.30;;;;;;4916940;29;20950;-74
2020/12/05 08:30:52;;;;;;;41.33;19.20;;;2.60;97.30;;;;;;4916902;29;20500;-74
2020/12/05 08:33:18;;;;;;;38.67;17.73;;;2.80;97.30;;;;;;4916745;29;20907;-74
2020/12/05 08:35:44;;;;;;;41.33;17.60;;;3.00;97.30;;;;;;4916875;29;20416;-73
2020/12/05 08:38:14;;;;;;;37.03;15.67;;;3.30;97.30;;;;;;4916598;29;20678;-73
2020/12/05 08:40:41;;;;;;;35.40;16.17;;;3.50;97.30;;;;;;4916506;29;21025;-73
2020/12/05 08:43:07;;;;;;;34.67;16.47;;;3.70;97.30;;;;;;4918015;29;20445;-74
2020/12/05 08:45:39;;;;;;;37.57;18.10;;;3.80;97.30;;;;;;4916451;29;20436;-74
2020/12/05 08:48:17;;;;;;;39.90;16.00;;;3.90;97.30;;;;;;4916725;29;20974;-73
2020/12/05 08:50:44;;;;;;;35.30;14.90;;;4.10;97.30;;;;;;4915649;29;20441;-73
2020/12/05 08:53:12;;;;;;;31.83;14.67;;;4.10;97.30;;;;;;4915370;29;20413;-73
2020/12/05 08:55:37;;;;;;;39.30;14.93;;;4.20;97.30;;;;;;4915183;29;20839;-73
2020/12/05 08:58:07;;;;;;;36.93;15.23;;;4.30;97.30;;;;;;4915674;29;20552;-73
2020/12/05 09:00:35;;;;;;;29.87;14.20;;;4.50;97.30;;;;;;4915482;29;20734;-73
2020/12/05 09:03:02;;;;;;;29.20;15.93;;;4.60;97.30;;;;;;4917083;29;20460;-73
2020/12/05 09:05:29;;;;;;;28.30;13.53;;;4.80;97.30;;;;;;4917185;29;20441;-72
2020/12/05 09:07:57;;;;;;;33.80;12.43;;;4.90;97.30;;;;;;4916131;29;20413;-73
2020/12/05 09:10:23;;;;;;;28.80;12.63;;;5.10;97.30;;;;;;4917213;29;20409;-72
2020/12/05 09:12:49;;;;;;;28.87;12.30;;;5.30;97.30;;;;;;4915682;29;20424;-72
2020/12/05 09:15:15;;;;;;;26.87;11.70;;;5.40;97.30;;;;;;4915127;29;20503;-72
2020/12/05 09:17:45;;;;;;;26.20;12.27;;;5.50;97.30;;;;;;4916246;29;20563;-73
2020/12/05 09:20:12;;;;;;;29.53;12.00;;;5.60;97.30;;;;;;4917162;29;20267;-72
2020/12/05 09:22:38;;;;;;;25.50;10.53;;;5.60;97.30;;;;;;4915826;29;20433;-73
2020/12/05 09:25:05;;;;;;;26.30;10.97;;;5.60;97.30;;;;;;4915801;29;20420;-73
2020/12/05 09:27:42;;;;;;;26.40;13.30;;;5.60;97.30;;;;;;4916081;29;20492;-73
2020/12/05 09:30:12;;;;;;;27.77;10.90;;;5.60;97.30;;;;;;4916060;29;20475;-73
2020/12/05 09:32:45;;;;;;;24.60;11.33;;;5.60;97.30;;;;;;4915472;29;20440;-72
2020/12/05 09:35:13;;;;;;;19.50;10.43;;;5.60;97.30;;;;;;4915658;29;20775;-72
2020/12/05 09:37:40;;;;;;;24.57;11.70;;;5.70;97.30;;;;;;4916569;29;20915;-72
2020/12/05 09:40:08;;;;;;;20.13;10.00;;;5.80;97.30;;;;;;4915885;29;20472;-73
2020/12/05 09:42:34;;;;;;;21.77;9.87;;;5.90;97.30;;;;;;4915867;29;20443;-72
2020/12/05 09:45:00;;;;;;;25.97;10.80;;;6.00;97.20;;;;;;4915367;29;20432;-72
2020/12/05 09:47:26;;;;;;;20.60;11.07;;;6.00;96.80;;;;;;4916083;29;20457;-72
2020/12/05 09:49:51;;;;;;;22.30;10.47;;;6.10;96.50;;;;;;4915363;29;20456;-72
2020/12/05 09:52:17;;;;;;;22.63;10.73;;;6.20;96.60;;;;;;4915888;29;20291;-72
2020/12/05 09:54:43;;;;;;;22.07;10.60;;;6.30;96.10;;;;;;4915404;29;20180;-73
2020/12/05 09:57:09;;;;;;;23.43;10.70;;;6.30;95.50;;;;;;4915428;29;20181;-74
2020/12/05 09:59:35;;;;;;;21.53;11.20;;;6.40;95.30;;;;;;4916284;29;20581;-75
2020/12/05 10:02:04;;;;;;;21.67;10.37;;;6.50;95.50;;;;;;4915530;29;20489;-74
2020/12/05 10:04:31;;;;;;;19.90;9.97;;;6.80;94.90;;;;;;4916119;29;20177;-75
2020/12/05 10:06:57;;;;;;;21.17;10.90;;;7.10;94.60;;;;;;4915833;29;20419;-74
2020/12/05 10:09:22;;;;;;;25.40;11.03;;;7.20;93.60;;;;;;4917217;29;20408;-74
2020/12/05 10:11:48;;;;;;;28.23;12.97;;;7.20;93.10;;;;;;4915882;29;20196;-74
2020/12/05 10:14:14;;;;;;;19.33;10.03;;;7.30;93.50;;;;;;4915674;29;20685;-74
2020/12/05 10:16:39;;;;;;;27.20;11.43;;;7.30;92.70;;;;;;4915626;29;20189;-74
2020/12/05 10:19:05;;;;;;;23.93;12.13;;;7.40;92.60;;;;;;4915397;29;20185;-74
2020/12/05 10:21:31;;;;;;;24.20;11.70;;;7.40;91.80;;;;;;4916730;29;20219;-73
2020/12/05 10:23:56;;;;;;;25.60;11.20;;;7.40;91.90;;;;;;4916855;29;20177;-74
2020/12/05 10:26:22;;;;;;;19.70;11.43;;;7.30;91.70;;;;;;4918217;29;20199;-75
2020/12/05 10:28:48;;;;;;;23.20;11.90;;;7.20;91.50;;;;;;4919197;29;20643;-74
2020/12/05 10:31:14;;;;;;;22.83;10.73;;;7.00;92.10;;;;;;4920320;29;20239;-74
2020/12/05 10:33:39;;;;;;;25.20;12.23;;;6.90;92.30;;;;;;4919022;29;20232;-74
2020/12/05 10:36:05;;;;;;;28.30;13.07;;;6.90;92.70;;;;;;4918999;29;20181;-75
2020/12/05 10:38:31;;;;;;;22.20;11.00;;;6.90;92.90;;;;;;4919063;29;20270;-74
2020/12/05 10:40:56;;;;;;;22.63;12.03;;;6.90;92.50;;;;;;4918954;29;20331;-74
2020/12/05 10:43:22;;;;;;;27.53;12.53;;;6.80;93.10;;;;;;4918740;29;20188;-74
2020/12/05 10:45:48;;;;;;;30.83;13.67;;;6.90;93.10;;;;;;4918691;29;20184;-75
2020/12/05 10:48:14;;;;;;;21.33;12.20;;;6.90;93.00;;;;;;4918750;29;20215;-73
2020/12/05 10:50:40;;;;;;;24.10;12.70;;;6.80;93.20;;;;;;4918182;29;20460;-75
2020/12/05 10:53:06;;;;;;;29.60;12.90;;;6.80;93.20;;;;;;4918524;29;20413;-75
2020/12/05 10:55:31;;;;;;;24.17;11.73;;;6.80;92.70;;;;;;4918038;29;20191;-74
2020/12/05 10:57:57;;;;;;;24.87;12.37;;;6.90;92.90;;;;;;4918770;29;20185;-74
2020/12/05 11:00:24;;;;;;;22.43;11.93;;;7.10;92.60;;;;;;4918138;29;20204;-75
2020/12/05 11:02:49;;;;;;;26.27;13.33;;;7.30;91.90;;;;;;4918138;29;20244;-75
2020/12/05 11:05:15;;;;;;;24.80;12.63;;;7.40;91.30;;;;;;4917913;29;20420;-73
2020/12/05 11:07:41;;;;;;;23.63;12.43;;;7.40;91.30;;;;;;4917918;29;20421;-74
2020/12/05 11:10:07;;;;;;;26.53;12.90;;;7.50;91.20;;;;;;4917212;29;20176;-75
2020/12/05 11:12:32;;;;;;;30.87;13.70;;;7.40;91.10;;;;;;4918300;29;20208;-74
2020/12/05 11:14:58;;;;;;;24.70;12.73;;;7.30;91.50;;;;;;4919443;29;20624;-74
2020/12/05 11:17:24;;;;;;;33.80;16.30;;;7.30;91.50;;;;;;4918178;29;20188;-74
2020/12/05 11:19:49;;;;;;;36.70;16.50;;;7.20;91.50;;;;;;4918145;29;20188;-76
2020/12/05 11:22:16;;;;;;;26.27;13.70;;;7.30;91.80;;;;;;4919246;29;20697;-75
2020/12/05 11:24:42;;;;;;;28.83;12.80;;;7.40;91.60;;;;;;4917944;29;20420;-74
2020/12/05 11:27:08;;;;;;;25.33;12.10;;;7.40;91.60;;;;;;4918102;29;20180;-75
2020/12/05 11:29:33;;;;;;;21.83;11.73;;;7.30;91.60;;;;;;4918165;29;20180;-75
2020/12/05 11:31:59;;;;;;;26.37;11.80;;;7.20;91.80;;;;;;4917843;29;20204;-75
2020/12/05 11:34:25;;;;;;;26.27;12.50;;;7.20;91.90;;;;;;4917805;29;20223;-74
2020/12/05 11:36:50;;;;;;;25.90;13.10;;;7.30;92.00;;;;;;4917624;29;20188;-75
2020/12/05 11:39:16;;;;;;;24.67;12.80;;;7.40;92.10;;;;;;4917154;29;20270;-75
2020/12/05 11:41:42;;;;;;;26.43;13.30;;;7.40;91.90;;;;;;4917315;29;20305;-75
2020/12/05 11:44:08;;;;;;;25.63;14.07;;;7.40;91.60;;;;;;4917738;29;20208;-75
2020/12/05 11:46:34;;;;;;;28.77;14.03;;;7.30;91.90;;;;;;4917609;29;20503;-75
2020/12/05 11:49:15;;;;;;;28.13;13.53;;;7.30;92.00;;;;;;4917425;29;20816;-75
2020/12/05 11:51:42;;;;;;;23.50;12.93;;;7.40;92.40;;;;;;4917608;29;20196;-75
2020/12/05 11:54:08;;;;;;;25.90;12.27;;;7.50;92.00;;;;;;4917196;29;20503;-75
2020/12/05 11:56:33;;;;;;;25.23;13.13;;;7.40;91.70;;;;;;4917554;29;20187;-75
2020/12/05 11:58:59;;;;;;;29.40;13.00;;;7.30;91.80;;;;;;4917513;29;20657;-75
2020/12/05 12:01:24;;;;;;;26.60;12.53;;;7.20;92.00;;;;;;4918643;29;20227;-75
2020/12/05 12:03:50;;;;;;;29.23;13.33;;;7.20;92.30;;;;;;4917207;29;20264;-75
2020/12/05 12:06:18;;;;;;;27.43;13.20;;;7.10;92.60;;;;;;4917311;29;20225;-75
2020/12/05 12:08:44;;;;;;;24.97;12.50;;;7.10;92.60;;;;;;4918071;29;20200;-74
2020/12/05 12:11:19;;;;;;;27.57;12.60;;;7.00;92.70;;;;;;4917230;29;20448;-75
2020/12/05 12:13:45;;;;;;;23.97;12.40;;;7.00;92.80;;;;;;4917177;29;20416;-74
2020/12/05 12:16:15;;;;;;;29.23;13.17;;;7.10;93.10;;;;;;4916860;29;20431;-74
2020/12/05 12:18:41;;;;;;;24.40;13.17;;;7.10;93.10;;;;;;4918393;29;20192;-75
2020/12/05 12:21:08;;;;;;;25.33;12.63;;;7.10;93.20;;;;;;4918085;29;20480;-75
2020/12/05 12:23:35;;;;;;;29.43;13.33;;;7.10;92.90;;;;;;4918074;29;20528;-75
2020/12/05 12:26:03;;;;;;;28.20;12.40;;;7.10;92.90;;;;;;4918180;29;20421;-74
2020/12/05 12:28:35;;;;;;;28.53;14.40;;;7.20;93.30;;;;;;4916991;29;20848;-74
2020/12/05 12:31:01;;;;;;;26.33;14.10;;;7.20;93.40;;;;;;4916699;29;20484;-74
2020/12/05 12:33:27;;;;;;;24.37;13.73;;;7.20;93.10;;;;;;4916643;29;20461;-75
2020/12/05 12:35:53;;;;;;;25.27;14.63;;;7.30;92.90;;;;;;4916317;29;20231;-75
2020/12/05 12:38:18;;;;;;;31.60;14.73;;;7.20;92.70;;;;;;4916341;29;20603;-75
2020/12/05 12:40:44;;;;;;;28.67;12.87;;;7.20;92.80;;;;;;4916664;29;20476;-76
2020/12/05 12:43:10;;;;;;;24.57;12.00;;;7.20;92.70;;;;;;4897737;29;20188;-75
2020/12/05 12:45:35;;;;;;;26.67;13.83;;;7.10;92.70;;;;;;4897195;29;20281;-75
2020/12/05 12:50:27;;;;;;;24.70;11.70;;;7.20;92.70;;;;;;4899009;29;20181;-75
2020/12/05 12:52:54;;;;;;;21.83;11.47;;;7.20;92.70;;;;;;4905136;29;20184;-75
2020/12/05 12:55:20;;;;;;;28.17;13.50;;;7.20;92.80;;;;;;4916532;29;20180;-74
2020/12/05 12:57:47;;;;;;;25.33;11.73;;;7.30;93.10;;;;;;4916400;29;20541;-75
2020/12/05 13:00:13;;;;;;;23.13;11.40;;;7.30;92.90;;;;;;4916544;29;20192;-74
2020/12/05 13:02:38;;;;;;;24.50;12.73;;;7.30;92.80;;;;;;4916097;29;20457;-75
2020/12/05 13:05:04;;;;;;;26.67;12.57;;;7.20;92.60;;;;;;4916231;29;20192;-74
2020/12/05 13:07:29;;;;;;;23.00;13.07;;;7.20;92.80;;;;;;4914680;29;21914;-75
2020/12/05 13:09:55;;;;;;;23.63;12.60;;;7.10;92.80;;;;;;4916359;29;20263;-76
2020/12/05 13:12:33;;;;;;;23.73;12.50;;;7.10;92.90;;;;;;4920836;29;20211;-76
2020/12/05 13:15:07;;;;;;;24.90;12.73;;;7.00;93.10;;;;;;4909964;29;20199;-76
2020/12/05 13:17:35;;;;;;;28.13;14.00;;;7.00;93.30;;;;;;4915796;29;20520;-76
2020/12/05 13:20:06;;;;;;;28.73;14.17;;;7.00;93.20;;;;;;4914611;29;20510;-76
2020/12/05 13:22:32;;;;;;;28.50;13.90;;;7.00;93.30;;;;;;4915251;29;20500;-76
2020/12/05 13:24:58;;;;;;;29.33;14.20;;;6.90;93.30;;;;;;4915803;29;20421;-76
2020/12/05 13:27:23;;;;;;;29.57;14.10;;;6.90;93.30;;;;;;4916016;29;20180;-76
2020/12/05 13:29:49;;;;;;;27.87;14.47;;;6.90;93.40;;;;;;4915941;29;20181;-76
2020/12/05 13:32:15;;;;;;;33.10;14.77;;;6.90;93.40;;;;;;4915983;29;20212;-76
2020/12/05 13:34:40;;;;;;;28.83;14.40;;;6.90;93.40;;;;;;4915682;29;20192;-75
2020/12/05 13:37:06;;;;;;;33.50;18.20;;;7.00;93.70;;;;;;4917043;29;20690;-77
2020/12/05 13:39:32;;;;;;;30.00;14.57;;;7.00;93.50;;;;;;4915879;29;20216;-77
2020/12/05 13:41:57;;;;;;;27.10;12.60;;;7.00;93.70;;;;;;4915501;29;20208;-76
2020/12/05 13:44:23;;;;;;;28.40;14.10;;;7.00;94.00;;;;;;4915741;29;20184;-76
2020/12/05 13:46:53;;;;;;;29.77;13.27;;;7.10;94.30;;;;;;4915487;29;20523;-76
2020/12/05 13:49:19;;;;;;;30.73;16.03;;;7.10;94.70;;;;;;4920732;29;20186;-77
2020/12/05 13:51:45;;;;;;;25.67;12.10;;;7.10;94.60;;;;;;4913212;29;20539;-77
2020/12/05 13:54:10;;;;;;;27.10;13.77;;;7.10;94.70;;;;;;4914810;29;20176;-77
2020/12/05 13:56:36;;;;;;;38.30;14.50;;;7.10;94.50;;;;;;4919710;29;20180;-77
2020/12/05 13:59:02;;;;;;;31.23;14.30;;;7.00;94.70;;;;;;4920486;29;20639;-77
2020/12/05 14:01:27;;;;;;;31.63;15.00;;;7.00;94.80;;;;;;4916719;29;20212;-78
2020/12/05 14:03:53;;;;;;;38.67;15.33;;;6.90;94.80;;;;;;4918528;29;20189;-77
2020/12/05 14:06:25;;;;;;;28.93;14.23;;;6.90;94.70;;;;;;4915177;29;20185;-77
2020/12/05 14:08:51;;;;;;;30.23;15.97;;;6.90;94.50;;;;;;4917638;29;20181;-77
2020/12/05 14:11:24;;;;;;;38.53;18.80;;;6.90;94.20;;;;;;4918456;29;20440;-77
2020/12/05 14:13:53;;;;;;;30.60;15.47;;;6.90;94.60;;;;;;4918319;29;20216;-77
2020/12/05 14:16:20;;;;;;;31.10;14.80;;;7.00;94.60;;;;;;4918076;29;20429;-77
2020/12/05 14:18:45;;;;;;;26.33;13.50;;;7.00;94.70;;;;;;4916700;29;20416;-77
2020/12/05 14:21:11;;;;;;;29.87;16.03;;;6.90;94.80;;;;;;4918431;29;20463;-77
2020/12/05 14:23:37;;;;;;;38.40;17.97;;;6.90;94.80;;;;;;4918072;29;20244;-77
2020/12/05 14:26:02;;;;;;;33.00;16.43;;;7.00;94.90;;;;;;4915988;29;20214;-77
2020/12/05 14:28:28;;;;;;;33.10;14.70;;;7.00;95.00;;;;;;4918897;29;20176;-77
2020/12/05 14:30:54;;;;;;;30.03;14.80;;;6.90;94.90;;;;;;4917743;29;20549;-76
2020/12/05 14:33:20;;;;;;;28.60;15.07;;;6.80;95.20;;;;;;4915227;29;20177;-76
2020/12/05 14:35:46;;;;;;;30.40;14.37;;;6.80;95.50;;;;;;4917814;29;20425;-76
2020/12/05 14:38:12;;;;;;;28.33;13.47;;;6.70;95.80;;;;;;4917907;29;20240;-76
2020/12/05 14:40:39;;;;;;;35.10;16.27;;;6.60;95.90;;;;;;4917487;29;20469;-76
2020/12/05 14:43:04;;;;;;;32.37;17.20;;;6.60;95.90;;;;;;4917512;29;20480;-76
2020/12/05 14:45:30;;;;;;;34.13;17.30;;;6.50;96.10;;;;;;4917296;29;20433;-77
2020/12/05 14:47:56;;;;;;;30.53;15.57;;;6.40;96.20;;;;;;4917633;29;20185;-77
2020/12/05 14:50:21;;;;;;;31.57;15.37;;;6.40;96.30;;;;;;4919049;29;20233;-77
2020/12/05 14:52:47;;;;;;;35.97;16.07;;;6.40;96.50;;;;;;4917350;29;20188;-77
2020/12/05 14:55:14;;;;;;;36.93;16.83;;;6.40;96.60;;;;;;4917730;29;20176;-77
2020/12/05 14:57:40;;;;;;;37.33;17.30;;;6.40;96.70;;;;;;4917988;29;20593;-77
2020/12/05 15:00:06;;;;;;;36.10;17.50;;;6.40;96.80;;;;;;4917286;29;20431;-77
2020/12/05 15:02:32;;;;;;;42.30;17.83;;;6.40;96.80;;;;;;4917580;29;20453;-77
2020/12/05 15:04:58;;;;;;;38.43;18.60;;;6.40;96.80;;;;;;4917135;29;20593;-78
2020/12/05 15:07:24;;;;;;;33.43;17.17;;;6.40;96.80;;;;;;4918313;29;20180;-76
2020/12/05 15:09:49;;;;;;;43.77;18.50;;;6.40;96.80;;;;;;4917592;29;20594;-76
2020/12/05 15:12:15;;;;;;;34.90;17.90;;;6.50;96.90;;;;;;4916188;29;20569;-76
2020/12/05 15:14:41;;;;;;;29.10;14.73;;;6.50;96.70;;;;;;4917102;29;20548;-76
2020/12/05 15:17:07;;;;;;;37.20;15.10;;;6.30;96.70;;;;;;4914796;29;20417;-76
2020/12/05 15:19:33;;;;;;;30.73;16.27;;;6.20;97.00;;;;;;4917258;29;20184;-76
2020/12/05 15:22:00;;;;;;;31.57;14.80;;;6.10;97.20;;;;;;4916543;29;20468;-77
2020/12/05 15:24:26;;;;;;;36.00;16.20;;;6.00;97.30;;;;;;4916749;29;20177;-76
2020/12/05 15:26:51;;;;;;;35.60;15.90;;;5.90;97.30;;;;;;4916913;29;20427;-76
2020/12/05 15:29:17;;;;;;;31.83;15.93;;;5.90;97.30;;;;;;4916933;29;20665;-76
2020/12/05 15:31:43;;;;;;;35.47;16.87;;;5.80;97.30;;;;;;4916449;29;20196;-76
2020/12/05 15:34:09;;;;;;;34.10;16.00;;;5.70;97.30;;;;;;4916549;29;20435;-76
2020/12/05 15:36:35;;;;;;;33.47;14.83;;;5.60;97.30;;;;;;4916517;29;20276;-76
2020/12/05 15:39:01;;;;;;;38.10;15.17;;;5.60;97.30;;;;;;4916785;29;20177;-76
2020/12/05 15:41:27;;;;;;;34.13;16.23;;;5.60;97.30;;;;;;4916800;29;20212;-76
2020/12/05 15:43:52;;;;;;;33.03;16.17;;;5.60;97.30;;;;;;4916634;29;20468;-76
2020/12/05 15:46:19;;;;;;;32.40;15.90;;;5.60;97.30;;;;;;4916842;29;20233;-75
2020/12/05 15:48:46;;;;;;;30.90;15.17;;;5.60;97.30;;;;;;4916145;29;20180;-76
2020/12/05 15:51:13;;;;;;;32.77;16.33;;;5.50;97.30;;;;;;4917221;29;20452;-76
2020/12/05 15:53:39;;;;;;;37.70;19.87;;;5.50;97.30;;;;;;4916362;29;20420;-77
2020/12/05 15:56:05;;;;;;;37.03;18.80;;;5.40;97.30;;;;;;4916719;29;20881;-77
2020/12/05 15:58:31;;;;;;;37.77;17.30;;;5.40;97.30;;;;;;4916661;29;20428;-77
2020/12/05 16:00:57;;;;;;;39.17;18.87;;;5.40;97.30;;;;;;4916377;29;20496;-76
2020/12/05 16:03:22;;;;;;;35.50;17.27;;;5.40;97.30;;;;;;4916723;29;20184;-76
2020/12/05 16:05:55;;;;;;;49.83;19.47;;;5.40;97.30;;;;;;4916524;29;20188;-76
2020/12/05 16:08:21;;;;;;;62.43;27.83;;;5.40;97.30;;;;;;4916759;29;20173;-77
2020/12/05 16:10:47;;;;;;;56.53;25.03;;;5.30;97.30;;;;;;4916363;29;20447;-77
2020/12/05 16:13:22;;;;;;;54.77;23.20;;;5.30;97.30;;;;;;4916804;29;20180;-77
2020/12/05 16:15:48;;;;;;;55.50;23.50;;;5.30;97.30;;;;;;4916158;29;20435;-77
2020/12/05 16:18:14;;;;;;;63.13;22.43;;;5.20;97.30;;;;;;4916074;29;20426;-77
2020/12/05 16:20:40;;;;;;;57.53;22.80;;;5.20;97.30;;;;;;4915553;29;20224;-77
2020/12/05 16:23:05;;;;;;;49.53;24.00;;;5.20;97.30;;;;;;4916958;29;20173;-76
2020/12/05 16:25:31;;;;;;;46.90;23.03;;;5.10;97.30;;;;;;4917291;29;20188;-75
2020/12/05 16:27:57;;;;;;;44.40;22.10;;;5.10;97.30;;;;;;4916593;29;20425;-77
2020/12/05 16:30:23;;;;;;;44.47;20.77;;;5.10;97.30;;;;;;4916773;29;20187;-77
2020/12/05 16:32:48;;;;;;;46.50;21.00;;;5.10;97.30;;;;;;4916628;29;20557;-77
2020/12/05 16:35:14;;;;;;;41.80;19.90;;;5.10;97.30;;;;;;4916456;29;20279;-77
2020/12/05 16:37:52;;;;;;;48.73;22.07;;;5.10;97.30;;;;;;4916595;29;20229;-77
2020/12/05 16:40:18;;;;;;;62.37;28.07;;;5.10;97.30;;;;;;4916343;29;20184;-77
2020/12/05 16:42:44;;;;;;;69.77;32.27;;;5.20;97.30;;;;;;4916537;29;20425;-77
2020/12/05 16:45:10;;;;;;;55.50;23.97;;;5.10;97.30;;;;;;4916277;29;20480;-77
2020/12/05 16:47:35;;;;;;;34.47;16.00;;;5.10;97.30;;;;;;4916592;29;20188;-77
2020/12/05 16:50:02;;;;;;;37.93;15.93;;;5.10;97.30;;;;;;4916387;29;20180;-77
2020/12/05 16:52:27;;;;;;;36.63;16.97;;;5.10;97.30;;;;;;4915670;29;20260;-78
2020/12/05 16:54:53;;;;;;;33.70;16.30;;;5.00;97.30;;;;;;4915664;29;20432;-77
2020/12/05 16:57:19;;;;;;;31.90;16.80;;;5.00;97.30;;;;;;4916396;29;20183;-76
2020/12/05 16:59:44;;;;;;;31.30;14.60;;;4.90;97.30;;;;;;4916183;29;20283;-75
2020/12/05 17:02:11;;;;;;;31.80;15.70;;;4.90;97.30;;;;;;4915854;29;20240;-77
2020/12/05 17:04:36;;;;;;;34.10;16.33;;;4.90;97.30;;;;;;4916073;29;20994;-76
2020/12/05 17:07:02;;;;;;;35.07;16.17;;;4.90;97.30;;;;;;4916220;29;20544;-76
2020/12/05 17:09:28;;;;;;;43.40;17.57;;;4.90;97.30;;;;;;4917340;29;20188;-76
2020/12/05 17:11:53;;;;;;;39.20;16.73;;;4.80;97.30;;;;;;4916086;29;20252;-76
2020/12/05 17:14:19;;;;;;;31.73;15.87;;;4.80;97.30;;;;;;4915501;29;20239;-75
2020/12/05 17:16:45;;;;;;;31.40;14.80;;;4.80;97.30;;;;;;4915834;29;20215;-76
2020/12/05 17:19:11;;;;;;;38.30;17.53;;;4.90;97.30;;;;;;4915951;29;20181;-77
2020/12/05 17:21:36;;;;;;;40.23;19.53;;;4.90;97.30;;;;;;4915821;29;20472;-77
2020/12/05 17:24:02;;;;;;;54.47;24.87;;;4.80;97.30;;;;;;4917026;29;20621;-77
2020/12/05 17:26:28;;;;;;;62.90;28.43;;;4.80;97.30;;;;;;4915699;29;20320;-77
2020/12/05 17:28:53;;;;;;;57.33;26.70;;;4.80;97.30;;;;;;4915879;29;20224;-76
2020/12/05 17:31:19;;;;;;;64.33;29.70;;;4.80;97.30;;;;;;4915641;29;20215;-77
2020/12/05 17:33:44;;;;;;;57.63;25.60;;;4.80;97.30;;;;;;4915505;29;20196;-75
2020/12/05 17:36:11;;;;;;;41.00;19.60;;;4.80;97.30;;;;;;4915089;29;20647;-75
2020/12/05 17:38:37;;;;;;;41.50;21.67;;;4.80;97.30;;;;;;4915807;29;20188;-74
2020/12/05 17:41:03;;;;;;;37.43;19.50;;;4.80;97.30;;;;;;4915508;29;21016;-74
2020/12/05 17:43:29;;;;;;;41.43;21.33;;;4.80;97.30;;;;;;4915699;29;20669;-77
2020/12/05 17:45:56;;;;;;;44.50;19.27;;;4.80;97.30;;;;;;4915533;29;20459;-77
2020/12/05 17:48:22;;;;;;;40.17;20.43;;;4.70;97.30;;;;;;4916813;29;20420;-76
2020/12/05 17:50:47;;;;;;;43.50;20.50;;;4.70;97.30;;;;;;4915468;29;20448;-76
2020/12/05 17:53:13;;;;;;;46.30;18.13;;;4.70;97.30;;;;;;4915306;29;20239;-77
2020/12/05 17:55:39;;;;;;;30.83;15.73;;;4.60;97.30;;;;;;4915547;29;20267;-76
2020/12/05 17:58:04;;;;;;;37.20;16.90;;;4.60;97.30;;;;;;4916635;29;20666;-77
2020/12/05 18:00:33;;;;;;;33.80;16.60;;;4.50;97.30;;;;;;4915505;29;20209;-78
2020/12/05 18:02:59;;;;;;;36.33;17.73;;;4.50;97.30;;;;;;4915522;29;20203;-77
2020/12/05 18:05:27;;;;;;;34.87;17.90;;;4.50;97.30;;;;;;4915032;29;20441;-77
2020/12/05 18:07:53;;;;;;;35.20;16.37;;;4.50;97.30;;;;;;4915192;29;20181;-76
2020/12/05 18:10:19;;;;;;;42.00;18.60;;;4.60;97.30;;;;;;4915322;29;20548;-74
2020/12/05 18:12:45;;;;;;;39.43;18.17;;;4.60;97.30;;;;;;4916582;29;20887;-74
2020/12/05 18:15:11;;;;;;;36.83;18.70;;;4.70;97.30;;;;;;4915442;29;20200;-77
2020/12/05 18:17:37;;;;;;;37.53;18.53;;;4.70;97.30;;;;;;4916520;29;20452;-74
2020/12/05 18:20:04;;;;;;;36.23;19.07;;;4.70;97.30;;;;;;4915391;29;20518;-74
2020/12/05 18:22:29;;;;;;;38.60;17.43;;;4.70;97.30;;;;;;4915254;29;20216;-76
2020/12/05 18:24:55;;;;;;;40.67;17.23;;;4.80;97.30;;;;;;4915252;29;20435;-75
2020/12/05 18:27:24;;;;;;;41.37;20.23;;;4.90;97.30;;;;;;4915498;29;20659;-77
2020/12/05 18:29:50;;;;;;;36.73;17.07;;;5.10;97.30;;;;;;4915314;29;20550;-75
2020/12/05 18:32:16;;;;;;;38.83;18.00;;;5.20;97.30;;;;;;4916352;29;20444;-74
2020/12/05 18:34:41;;;;;;;37.70;17.80;;;5.30;97.30;;;;;;4914960;29;20195;-74
2020/12/05 18:37:07;;;;;;;33.90;17.70;;;5.30;97.30;;;;;;4916299;29;20191;-74
2020/12/05 18:39:32;;;;;;;39.43;18.67;;;5.40;97.30;;;;;;4915161;29;20181;-76